Time;durP1;ratioP1;P1;durP2;ratioP2;P2;SDS_P1;SDS_P2;PMS_P1;PMS_P2;Temp;Humidity;BMP_temperature;BMP_pressure;BME280_temperature;BME280_humidity;BME280_pressure;Samples;Min_cycle;Max_cycle;Signal;HPM_P1;HPM_P2
2023/10/19 00:00:44;;;;;;;30.70;19.67;;;;;;;;;;5086359;28;20239;-39
2023/10/19 00:03:11;;;;;;;22.27;16.33;;;;;;;;;;5086727;28;20040;-40
2023/10/19 00:05:38;;;;;;;21.58;12.82;;;;;;;;;;5086277;28;20040;-40
2023/10/19 00:08:15;;;;;;;12.55;8.98;;;;;;;;;;5086515;28;20095;-41
2023/10/19 00:10:47;;;;;;;13.23;8.73;;;;;;;;;;5085894;28;20180;-43
2023/10/19 00:13:16;;;;;;;12.77;7.35;;;;;;;;;;5086291;28;20034;-39
2023/10/19 00:15:53;;;;;;;8.00;5.80;;;;;;;;;;5086199;28;20036;-38
2023/10/19 00:18:21;;;;;;;6.00;4.60;;;;;;;;;;5086559;28;20025;-43
2023/10/19 00:23:24;;;;;;;7.85;5.10;;;;;;;;;;5086425;28;20017;-43
2023/10/19 00:25:51;;;;;;;6.88;5.00;;;;;;;;;;5086139;28;20056;-42
2023/10/19 00:28:18;;;;;;;4.43;3.90;;;;;;;;;;5086056;28;20047;-41
2023/10/19 00:30:47;;;;;;;4.50;3.20;;;;;;;;;;5085950;28;20022;-40
2023/10/19 00:33:19;;;;;;;5.97;3.72;;;;;;;;;;5086232;28;20173;-40
2023/10/19 00:35:47;;;;;;;10.40;5.57;;;;;;;;;;5085872;28;20044;-40
2023/10/19 00:38:27;;;;;;;25.73;7.18;;;;;;;;;;5086630;28;20085;-42
2023/10/19 00:40:59;;;;;;;17.48;6.30;;;;;;;;;;5086653;28;20234;-47
2023/10/19 00:44:07;;;;;;;12.63;5.75;;;;;;;;;;5085372;28;20345;-41
2023/10/19 00:46:31;;;;;;;9.55;5.28;;;;;;;;;;5082313;28;20036;-40
2023/10/19 00:49:00;;;;;;;12.77;5.03;;;;;;;;;;5086000;28;20025;-39
2023/10/19 00:53:58;;;;;;;13.05;5.18;;;;;;;;;;5079251;28;20020;-48
2023/10/19 00:56:31;;;;;;;19.67;5.80;;;;;;;;;;5072745;28;20029;-42
2023/10/19 00:59:07;;;;;;;15.95;5.82;;;;;;;;;;5069067;28;20395;-41
2023/10/19 01:01:40;;;;;;;8.32;4.95;;;;;;;;;;5089171;28;20036;-43
2023/10/19 01:04:07;;;;;;;12.40;5.38;;;;;;;;;;5078913;28;20083;-46
2023/10/19 01:06:33;;;;;;;7.90;5.22;;;;;;;;;;5071227;28;20043;-42
2023/10/19 01:09:01;;;;;;;7.65;4.65;;;;;;;;;;5074157;28;20212;-46
2023/10/19 01:11:28;;;;;;;7.00;4.38;;;;;;;;;;5076580;28;20033;-41
2023/10/19 01:13:55;;;;;;;8.10;4.60;;;;;;;;;;5073439;28;20027;-50
2023/10/19 01:16:22;;;;;;;8.45;4.28;;;;;;;;;;5077153;28;20044;-51
2023/10/19 01:18:54;;;;;;;9.18;5.00;;;;;;;;;;5076339;28;20048;-46
2023/10/19 01:21:35;;;;;;;9.88;5.28;;;;;;;;;;5073389;28;20033;-51
2023/10/19 01:24:02;;;;;;;5.97;4.60;;;;;;;;;;5077728;28;20353;-47
2023/10/19 01:26:29;;;;;;;6.55;4.40;;;;;;;;;;5070962;28;20346;-45
2023/10/19 01:29:07;;;;;;;8.13;4.07;;;;;;;;;;5072020;28;20308;-46
2023/10/19 01:31:38;;;;;;;9.07;4.05;;;;;;;;;;5075631;28;20034;-45
2023/10/19 01:34:06;;;;;;;6.82;4.30;;;;;;;;;;5074812;28;20108;-43
2023/10/19 01:36:55;;;;;;;6.95;4.07;;;;;;;;;;5081889;28;20033;-48
2023/10/19 01:39:20;;;;;;;5.35;4.13;;;;;;;;;;5064268;28;20032;-43
2023/10/19 01:41:50;;;;;;;6.68;4.05;;;;;;;;;;5072490;28;20029;-46
2023/10/19 01:44:20;;;;;;;8.27;4.00;;;;;;;;;;5073289;28;20032;-46
2023/10/19 01:46:48;;;;;;;5.53;4.15;;;;;;;;;;5073252;28;20074;-49
2023/10/19 01:49:25;;;;;;;9.90;4.22;;;;;;;;;;5063918;28;20224;-47
2023/10/19 01:51:54;;;;;;;13.32;8.23;;;;;;;;;;5063345;28;20013;-50
2023/10/19 01:54:26;;;;;;;19.17;8.10;;;;;;;;;;5076446;28;20021;-48
2023/10/19 01:56:56;;;;;;;11.45;7.03;;;;;;;;;;5076746;28;20021;-54
2023/10/19 01:59:30;;;;;;;10.77;6.82;;;;;;;;;;5063410;28;20060;-44
2023/10/19 02:02:22;;;;;;;9.80;6.25;;;;;;;;;;5062950;28;20017;-47
2023/10/19 02:04:51;;;;;;;9.98;5.75;;;;;;;;;;5077564;28;20033;-48
2023/10/19 02:07:20;;;;;;;8.82;5.82;;;;;;;;;;5063208;28;20325;-51
2023/10/19 02:09:47;;;;;;;10.68;6.03;;;;;;;;;;5065486;28;20052;-48
2023/10/19 02:12:18;;;;;;;11.68;5.50;;;;;;;;;;5087888;28;20043;-46
2023/10/19 02:14:46;;;;;;;6.60;4.85;;;;;;;;;;5067856;28;20173;-50
2023/10/19 02:17:14;;;;;;;7.00;4.72;;;;;;;;;;5064036;28;20021;-50
2023/10/19 02:19:41;;;;;;;7.75;4.25;;;;;;;;;;5063290;28;20045;-44
2023/10/19 02:22:12;;;;;;;9.20;6.78;;;;;;;;;;5063838;28;20016;-46
2023/10/19 02:24:39;;;;;;;5.80;3.67;;;;;;;;;;5065164;28;20340;-43
2023/10/19 02:27:05;;;;;;;6.55;3.22;;;;;;;;;;5066065;28;20267;-46
2023/10/19 02:29:32;;;;;;;4.38;3.22;;;;;;;;;;5098502;28;20024;-48
2023/10/19 02:32:05;;;;;;;4.10;2.95;;;;;;;;;;5083358;28;20021;-46
2023/10/19 02:34:32;;;;;;;6.68;3.22;;;;;;;;;;5083334;28;20101;-43
2023/10/19 02:36:58;;;;;;;3.97;2.88;;;;;;;;;;5080840;28;20483;-50
2023/10/19 02:39:28;;;;;;;5.65;3.05;;;;;;;;;;5063927;28;20100;-49
2023/10/19 02:41:55;;;;;;;3.40;3.10;;;;;;;;;;5067991;28;20017;-55
2023/10/19 02:44:22;;;;;;;4.75;3.10;;;;;;;;;;5070508;28;20329;-47
2023/10/19 02:46:51;;;;;;;8.07;3.28;;;;;;;;;;5070095;28;20033;-48
2023/10/19 02:49:20;;;;;;;4.20;3.40;;;;;;;;;;5063804;28;20236;-49
2023/10/19 02:51:47;;;;;;;6.97;3.42;;;;;;;;;;5063586;28;20036;-51
2023/10/19 02:54:22;;;;;;;4.40;3.30;;;;;;;;;;5062597;28;20032;-49
2023/10/19 02:56:49;;;;;;;7.82;4.00;;;;;;;;;;5063620;28;20032;-48
2023/10/19 02:59:22;;;;;;;5.07;3.78;;;;;;;;;;5063381;28;20044;-50
2023/10/19 03:01:54;;;;;;;9.40;4.13;;;;;;;;;;5063176;28;20024;-48
2023/10/19 03:04:21;;;;;;;5.78;4.15;;;;;;;;;;5062998;28;20123;-47
2023/10/19 03:06:47;;;;;;;5.85;3.50;;;;;;;;;;5063033;28;20332;-46
2023/10/19 03:09:28;;;;;;;6.60;3.22;;;;;;;;;;5063467;28;20016;-44
2023/10/19 03:11:59;;;;;;;6.25;3.80;;;;;;;;;;5063276;28;20025;-50
2023/10/19 03:14:26;;;;;;;8.25;4.75;;;;;;;;;;5063338;28;20024;-49
2023/10/19 03:16:56;;;;;;;5.90;3.60;;;;;;;;;;5072540;28;20351;-47
2023/10/19 03:19:24;;;;;;;8.35;3.58;;;;;;;;;;5103600;28;20070;-49
2023/10/19 03:21:52;;;;;;;6.70;3.35;;;;;;;;;;5088630;28;20062;-50
2023/10/19 03:24:23;;;;;;;4.40;3.13;;;;;;;;;;5083357;28;20054;-46
2023/10/19 03:26:51;;;;;;;6.53;3.30;;;;;;;;;;5093354;28;20024;-46
2023/10/19 03:29:31;;;;;;;6.78;3.53;;;;;;;;;;5103536;28;20223;-51
2023/10/19 03:32:00;;;;;;;5.65;3.50;;;;;;;;;;5103485;28;20028;-44
2023/10/19 03:34:26;;;;;;;9.88;4.10;;;;;;;;;;5097879;28;20056;-46
2023/10/19 03:36:54;;;;;;;12.15;4.20;;;;;;;;;;5084566;28;20217;-51
2023/10/19 03:39:22;;;;;;;9.80;4.22;;;;;;;;;;5083219;28;20055;-45
2023/10/19 03:41:52;;;;;;;7.70;4.00;;;;;;;;;;5083205;28;20016;-50
2023/10/19 03:46:59;;;;;;;8.00;3.15;;;;;;;;;;5086163;28;20012;-45
2023/10/19 03:49:30;;;;;;;10.70;3.13;;;;;;;;;;5082416;28;20033;-48
2023/10/19 03:52:30;;;;;;;7.03;3.63;;;;;;;;;;5077973;28;20021;-41
2023/10/19 03:54:50;;;;;;;7.55;3.00;;;;;;;;;;5084495;28;20043;-46
2023/10/19 03:57:25;;;;;;;5.35;2.72;;;;;;;;;;5086603;28;20358;-41
2023/10/19 03:59:58;;;;;;;4.57;2.63;;;;;;;;;;5086498;28;20055;-49
2023/10/19 04:02:29;;;;;;;3.75;2.40;;;;;;;;;;5086633;28;20028;-48
2023/10/19 04:04:57;;;;;;;11.03;2.67;;;;;;;;;;5086305;28;20229;-49
2023/10/19 04:07:25;;;;;;;3.83;2.42;;;;;;;;;;5086009;28;20056;-44
2023/10/19 04:12:41;;;;;;;4.53;2.47;;;;;;;;;;5086470;28;20025;-44
2023/10/19 04:15:17;;;;;;;6.95;2.53;;;;;;;;;;5086295;28;20093;-43
2023/10/19 04:17:48;;;;;;;7.43;2.60;;;;;;;;;;5086344;28;20035;-46
2023/10/19 04:22:50;;;;;;;5.65;2.63;;;;;;;;;;5086229;28;20028;-43
2023/10/19 04:25:20;;;;;;;6.10;2.60;;;;;;;;;;5086055;28;20028;-47
2023/10/19 04:27:48;;;;;;;4.22;2.65;;;;;;;;;;5086119;28;20309;-52
2023/10/19 04:30:16;;;;;;;6.20;2.58;;;;;;;;;;5085888;28;20021;-55
2023/10/19 04:32:50;;;;;;;8.55;2.40;;;;;;;;;;5086445;28;20024;-45
2023/10/19 04:35:23;;;;;;;7.53;2.38;;;;;;;;;;5085779;28;20071;-50
2023/10/19 04:37:51;;;;;;;7.32;2.30;;;;;;;;;;5085992;28;20066;-42
2023/10/19 04:40:22;;;;;;;5.18;2.45;;;;;;;;;;5086032;28;20379;-46
2023/10/19 04:42:50;;;;;;;6.80;2.30;;;;;;;;;;5077621;28;20217;-43
2023/10/19 04:45:16;;;;;;;6.40;2.20;;;;;;;;;;5079433;28;20087;-46
2023/10/19 04:47:43;;;;;;;5.28;2.30;;;;;;;;;;5065712;28;20029;-48
2023/10/19 04:50:13;;;;;;;4.95;2.42;;;;;;;;;;5065647;28;20021;-51
2023/10/19 04:52:40;;;;;;;4.43;2.45;;;;;;;;;;5065805;28;20021;-45
2023/10/19 04:55:07;;;;;;;5.38;2.90;;;;;;;;;;5065265;28;20096;-44
2023/10/19 04:57:34;;;;;;;3.25;2.38;;;;;;;;;;5065473;28;20024;-44
2023/10/19 05:00:01;;;;;;;4.82;2.38;;;;;;;;;;5065546;28;20220;-49
2023/10/19 05:02:30;;;;;;;5.63;2.45;;;;;;;;;;5065589;28;20025;-44
2023/10/19 05:04:56;;;;;;;3.58;2.25;;;;;;;;;;5065245;28;20029;-45
2023/10/19 05:07:23;;;;;;;5.82;2.38;;;;;;;;;;5065374;28;20028;-47
2023/10/19 05:09:49;;;;;;;4.80;2.35;;;;;;;;;;5065913;28;20140;-46
2023/10/19 05:12:16;;;;;;;3.83;2.22;;;;;;;;;;5064753;28;20086;-54
2023/10/19 05:14:43;;;;;;;3.38;2.17;;;;;;;;;;5065157;28;20025;-44
2023/10/19 05:17:10;;;;;;;4.15;2.28;;;;;;;;;;5065246;28;20205;-47
2023/10/19 05:19:38;;;;;;;3.92;2.47;;;;;;;;;;5064856;28;20032;-43
2023/10/19 05:22:06;;;;;;;3.30;2.35;;;;;;;;;;5065062;28;20016;-45
2023/10/19 05:24:32;;;;;;;6.43;2.28;;;;;;;;;;5065001;28;20345;-43
2023/10/19 05:26:59;;;;;;;5.18;2.40;;;;;;;;;;5064638;28;20032;-42
2023/10/19 05:29:26;;;;;;;6.53;2.47;;;;;;;;;;5064909;28;20021;-47
2023/10/19 05:31:57;;;;;;;4.80;2.28;;;;;;;;;;5064740;28;20028;-43
2023/10/19 05:34:32;;;;;;;6.95;2.33;;;;;;;;;;5071127;28;20053;-48
2023/10/19 05:37:01;;;;;;;5.03;2.20;;;;;;;;;;5084569;28;20024;-43
2023/10/19 05:39:33;;;;;;;5.50;2.17;;;;;;;;;;5084604;28;20032;-45
2023/10/19 05:42:02;;;;;;;4.53;2.30;;;;;;;;;;5084855;28;20039;-49
2023/10/19 05:44:32;;;;;;;5.15;2.45;;;;;;;;;;5084585;28;20036;-45
2023/10/19 05:46:59;;;;;;;7.90;2.42;;;;;;;;;;5084306;28;20032;-51
2023/10/19 05:49:26;;;;;;;5.28;2.10;;;;;;;;;;5084528;28;20036;-43
2023/10/19 05:51:52;;;;;;;4.95;2.20;;;;;;;;;;5084527;28;20080;-48
2023/10/19 05:54:19;;;;;;;5.38;2.20;;;;;;;;;;5084227;28;20073;-45
2023/10/19 05:56:46;;;;;;;6.97;2.70;;;;;;;;;;5084478;28;20085;-47
2023/10/19 05:59:15;;;;;;;5.32;2.35;;;;;;;;;;5084725;28;20182;-48
2023/10/19 06:01:46;;;;;;;4.55;2.33;;;;;;;;;;5084110;28;20039;-42
2023/10/19 06:04:15;;;;;;;3.97;2.20;;;;;;;;;;5084997;28;20032;-43
2023/10/19 06:06:41;;;;;;;7.85;2.40;;;;;;;;;;5083626;28;20029;-48
2023/10/19 06:09:09;;;;;;;6.22;2.58;;;;;;;;;;5084470;28;20301;-43
2023/10/19 06:11:44;;;;;;;6.07;2.10;;;;;;;;;;5084154;28;20027;-47
2023/10/19 06:14:11;;;;;;;6.05;2.42;;;;;;;;;;5084615;28;20079;-43
2023/10/19 06:16:38;;;;;;;5.00;2.30;;;;;;;;;;5083866;28;20228;-45
2023/10/19 06:19:07;;;;;;;4.40;2.30;;;;;;;;;;5084698;28;20016;-45
2023/10/19 06:21:34;;;;;;;5.45;2.33;;;;;;;;;;5084237;28;20255;-45
2023/10/19 06:24:00;;;;;;;3.08;2.10;;;;;;;;;;5084360;28;20078;-44
2023/10/19 06:26:27;;;;;;;3.65;2.40;;;;;;;;;;5084008;28;20093;-50
2023/10/19 06:28:59;;;;;;;4.75;2.40;;;;;;;;;;5084551;28;20020;-49
2023/10/19 06:31:26;;;;;;;2.35;2.13;;;;;;;;;;5084037;28;20188;-46
2023/10/19 06:33:54;;;;;;;3.60;2.33;;;;;;;;;;5084160;28;20034;-53
2023/10/19 06:36:21;;;;;;;8.77;2.53;;;;;;;;;;5084067;28;20036;-44
2023/10/19 06:38:50;;;;;;;9.35;2.25;;;;;;;;;;5084247;28;20076;-43
2023/10/19 06:41:18;;;;;;;5.00;2.20;;;;;;;;;;5083834;28;20024;-43
2023/10/19 06:43:45;;;;;;;8.13;2.40;;;;;;;;;;5084064;28;20220;-46
2023/10/19 06:46:11;;;;;;;8.88;2.30;;;;;;;;;;5083662;28;20047;-46
2023/10/19 06:48:38;;;;;;;5.60;2.25;;;;;;;;;;5083988;28;20016;-44
2023/10/19 06:51:06;;;;;;;6.80;2.17;;;;;;;;;;5083623;28;20297;-53
2023/10/19 06:53:33;;;;;;;6.78;2.10;;;;;;;;;;5084043;28;20041;-43
2023/10/19 06:55:59;;;;;;;10.10;2.47;;;;;;;;;;5083686;28;20017;-43
2023/10/19 06:58:26;;;;;;;4.32;2.10;;;;;;;;;;5084237;28;20032;-44
2023/10/19 07:00:56;;;;;;;5.45;1.98;;;;;;;;;;5083602;28;20029;-46
2023/10/19 07:03:23;;;;;;;6.80;2.10;;;;;;;;;;5083872;28;20024;-47
2023/10/19 07:05:49;;;;;;;5.28;2.22;;;;;;;;;;5083513;28;20021;-49
2023/10/19 07:08:16;;;;;;;6.70;2.40;;;;;;;;;;5083907;28;20064;-46
2023/10/19 07:10:43;;;;;;;6.10;2.45;;;;;;;;;;5083601;28;20020;-45
2023/10/19 07:13:09;;;;;;;6.28;2.38;;;;;;;;;;5082002;28;20021;-44
2023/10/19 07:15:36;;;;;;;7.28;2.65;;;;;;;;;;5071161;28;20308;-46
2023/10/19 07:18:03;;;;;;;5.25;2.40;;;;;;;;;;5079791;28;20032;-46
2023/10/19 07:20:35;;;;;;;6.53;2.38;;;;;;;;;;5067384;28;20096;-44
2023/10/19 07:23:22;;;;;;;6.63;2.30;;;;;;;;;;5067707;28;20037;-45
2023/10/19 07:26:11;;;;;;;4.00;2.30;;;;;;;;;;5067116;28;20029;-49
2023/10/19 07:28:37;;;;;;;10.48;2.50;;;;;;;;;;5067185;28;20040;-49
2023/10/19 07:31:04;;;;;;;4.00;2.25;;;;;;;;;;5067081;28;20032;-50
2023/10/19 07:33:31;;;;;;;6.22;2.70;;;;;;;;;;5067333;28;20312;-47
2023/10/19 07:35:59;;;;;;;6.43;2.70;;;;;;;;;;5067043;28;20024;-47
2023/10/19 07:38:28;;;;;;;9.10;2.80;;;;;;;;;;5067191;28;20040;-54
2023/10/19 07:40:55;;;;;;;5.32;2.50;;;;;;;;;;5066874;28;20039;-45
2023/10/19 07:43:22;;;;;;;8.60;2.55;;;;;;;;;;5067221;28;20021;-44
2023/10/19 07:45:49;;;;;;;6.07;2.45;;;;;;;;;;5066816;28;20033;-50
2023/10/19 07:48:16;;;;;;;6.55;2.35;;;;;;;;;;5067017;28;20053;-48
2023/10/19 07:50:44;;;;;;;6.43;2.45;;;;;;;;;;5067008;28;20028;-47
2023/10/19 07:53:10;;;;;;;6.30;2.30;;;;;;;;;;5066888;28;20031;-50
2023/10/19 07:55:38;;;;;;;15.82;3.08;;;;;;;;;;5066980;28;20340;-46
2023/10/19 07:58:08;;;;;;;57.17;6.43;;;;;;;;;;5066966;28;20031;-47
2023/10/19 08:00:35;;;;;;;60.53;6.70;;;;;;;;;;5066408;28;20090;-50
2023/10/19 08:03:06;;;;;;;65.18;7.50;;;;;;;;;;5066767;28;20092;-44
2023/10/19 08:05:33;;;;;;;57.15;6.93;;;;;;;;;;5066403;28;20269;-46
2023/10/19 08:08:00;;;;;;;63.78;7.70;;;;;;;;;;5066444;28;20024;-44
2023/10/19 08:10:27;;;;;;;114.80;11.35;;;;;;;;;;5066524;28;20094;-52
2023/10/19 08:12:55;;;;;;;109.30;10.88;;;;;;;;;;5066556;28;20036;-57
2023/10/19 08:15:21;;;;;;;75.50;8.43;;;;;;;;;;5066139;28;20016;-49
2023/10/19 08:17:50;;;;;;;76.13;8.82;;;;;;;;;;5066424;28;20044;-44
2023/10/19 08:20:38;;;;;;;62.15;7.00;;;;;;;;;;5066630;28;20278;-50
2023/10/19 08:23:06;;;;;;;27.92;4.93;;;;;;;;;;5065967;28;20321;-45
2023/10/19 08:25:32;;;;;;;24.02;4.22;;;;;;;;;;5065694;28;20220;-47
2023/10/19 08:27:59;;;;;;;19.58;3.17;;;;;;;;;;5066089;28;20035;-46
2023/10/19 08:30:26;;;;;;;19.00;3.58;;;;;;;;;;5065484;28;20059;-45
2023/10/19 08:32:53;;;;;;;15.88;3.28;;;;;;;;;;5066193;28;20048;-46
2023/10/19 08:35:24;;;;;;;10.20;3.25;;;;;;;;;;5065982;28;20060;-47
2023/10/19 08:37:51;;;;;;;7.53;2.85;;;;;;;;;;5066059;28;20044;-46
2023/10/19 08:40:18;;;;;;;13.50;3.10;;;;;;;;;;5065941;28;20224;-46
2023/10/19 08:42:45;;;;;;;8.43;2.88;;;;;;;;;;5066066;28;20084;-50
2023/10/19 08:45:13;;;;;;;6.90;3.00;;;;;;;;;;5065948;28;20167;-48
2023/10/19 08:47:56;;;;;;;6.47;2.75;;;;;;;;;;5065874;28;20036;-44
2023/10/19 08:50:24;;;;;;;7.57;2.70;;;;;;;;;;5068092;28;20016;-48
2023/10/19 08:52:54;;;;;;;10.77;3.15;;;;;;;;;;5085959;28;20029;-57
2023/10/19 08:55:21;;;;;;;12.05;3.03;;;;;;;;;;5085478;28;20048;-44
2023/10/19 08:57:51;;;;;;;6.97;2.80;;;;;;;;;;5085940;28;20031;-48
2023/10/19 09:00:18;;;;;;;8.68;3.13;;;;;;;;;;5085490;28;20029;-45
2023/10/19 09:02:45;;;;;;;5.90;2.97;;;;;;;;;;5085645;28;20047;-50
2023/10/19 09:05:19;;;;;;;4.88;2.80;;;;;;;;;;5085515;28;20028;-52
2023/10/19 09:07:56;;;;;;;5.65;2.97;;;;;;;;;;5085504;28;20043;-50
2023/10/19 09:10:26;;;;;;;6.95;3.17;;;;;;;;;;5085382;28;20077;-50
2023/10/19 09:13:12;;;;;;;7.22;2.55;;;;;;;;;;5085452;28;20036;-44
2023/10/19 09:15:39;;;;;;;6.47;2.80;;;;;;;;;;5085245;28;20283;-42
2023/10/19 09:18:15;;;;;;;7.47;2.72;;;;;;;;;;5085505;28;20082;-48
2023/10/19 09:20:48;;;;;;;5.63;2.90;;;;;;;;;;5085111;28;20088;-44
2023/10/19 09:23:15;;;;;;;4.53;2.72;;;;;;;;;;5085266;28;20032;-43
2023/10/19 09:25:41;;;;;;;4.72;2.53;;;;;;;;;;5084851;28;20084;-45
2023/10/19 09:28:10;;;;;;;6.10;2.78;;;;;;;;;;5084741;28;20082;-48
2023/10/19 09:30:38;;;;;;;6.15;3.17;;;;;;;;;;5084841;28;20069;-47
2023/10/19 09:33:07;;;;;;;6.95;2.97;;;;;;;;;;5085061;28;20027;-48
2023/10/19 09:35:37;;;;;;;8.52;3.10;;;;;;;;;;5084636;28;20052;-44
2023/10/19 09:38:06;;;;;;;4.90;2.83;;;;;;;;;;5084934;28;20028;-45
2023/10/19 09:40:36;;;;;;;5.07;2.85;;;;;;;;;;5084527;28;20020;-55
2023/10/19 09:43:08;;;;;;;5.57;2.83;;;;;;;;;;5084016;28;20036;-44
2023/10/19 09:45:37;;;;;;;7.32;2.78;;;;;;;;;;5084700;28;20040;-51
2023/10/19 09:48:06;;;;;;;6.35;2.85;;;;;;;;;;5084908;28;20297;-46
2023/10/19 09:50:33;;;;;;;5.88;3.05;;;;;;;;;;5084489;28;20054;-45
2023/10/19 09:53:02;;;;;;;8.10;2.83;;;;;;;;;;5084799;28;20024;-48
2023/10/19 09:55:30;;;;;;;5.82;2.92;;;;;;;;;;5084256;28;20046;-41
2023/10/19 09:58:00;;;;;;;4.63;3.00;;;;;;;;;;5084598;28;20074;-49
2023/10/19 10:00:31;;;;;;;9.13;2.97;;;;;;;;;;5084473;28;20020;-47
2023/10/19 10:02:58;;;;;;;9.63;3.13;;;;;;;;;;5084578;28;20086;-47
2023/10/19 10:05:47;;;;;;;7.45;2.85;;;;;;;;;;5084340;28;20021;-47
2023/10/19 10:08:23;;;;;;;6.85;2.60;;;;;;;;;;5084345;28;20059;-54
2023/10/19 10:10:53;;;;;;;6.70;2.90;;;;;;;;;;5084172;28;20298;-52
2023/10/19 10:13:32;;;;;;;4.70;2.63;;;;;;;;;;5065230;28;20032;-46
2023/10/19 10:16:00;;;;;;;6.15;2.67;;;;;;;;;;5064157;28;20041;-49
2023/10/19 10:18:36;;;;;;;3.95;2.70;;;;;;;;;;5064259;28;20037;-47
2023/10/19 10:21:08;;;;;;;5.10;2.80;;;;;;;;;;5064091;28;20033;-48
2023/10/19 10:23:42;;;;;;;8.40;2.75;;;;;;;;;;5064342;28;20044;-42
2023/10/19 10:26:13;;;;;;;5.82;2.90;;;;;;;;;;5063920;28;20033;-49
2023/10/19 10:28:43;;;;;;;5.13;3.20;;;;;;;;;;5067223;28;20032;-53
2023/10/19 10:31:09;;;;;;;6.40;3.00;;;;;;;;;;5071929;28;20017;-54
2023/10/19 10:33:39;;;;;;;6.53;2.92;;;;;;;;;;5071750;28;20079;-49
2023/10/19 10:36:07;;;;;;;6.47;3.10;;;;;;;;;;5075078;28;20020;-49
2023/10/19 10:38:35;;;;;;;8.50;3.38;;;;;;;;;;5069188;28;20078;-47
2023/10/19 10:41:02;;;;;;;7.22;3.10;;;;;;;;;;5076699;28;20290;-48
2023/10/19 10:43:28;;;;;;;6.85;3.25;;;;;;;;;;5072865;28;20032;-43
2023/10/19 10:46:16;;;;;;;9.25;3.17;;;;;;;;;;5064082;28;20100;-45
2023/10/19 10:48:43;;;;;;;5.50;3.50;;;;;;;;;;5076874;28;20033;-44
2023/10/19 10:51:23;;;;;;;7.28;3.20;;;;;;;;;;5075024;28;20321;-42
2023/10/19 10:53:53;;;;;;;7.15;3.53;;;;;;;;;;5076366;28;20363;-46
2023/10/19 10:56:21;;;;;;;10.10;3.72;;;;;;;;;;5076726;28;20047;-52
2023/10/19 10:58:50;;;;;;;11.60;3.30;;;;;;;;;;5077372;28;20009;-44
2023/10/19 11:01:34;;;;;;;8.88;3.45;;;;;;;;;;5076640;28;20036;-50
2023/10/19 11:04:08;;;;;;;9.07;4.10;;;;;;;;;;5068573;28;20100;-43
2023/10/19 11:06:46;;;;;;;8.15;3.80;;;;;;;;;;5067596;28;20033;-39
2023/10/19 11:09:18;;;;;;;6.93;3.53;;;;;;;;;;5067373;28;20033;-38
2023/10/19 11:11:45;;;;;;;5.38;3.28;;;;;;;;;;5067967;28;20029;-36
2023/10/19 11:14:12;;;;;;;4.85;3.35;;;;;;;;;;5067886;28;20419;-42
2023/10/19 11:16:39;;;;;;;7.82;3.00;;;;;;;;;;5067698;28;20035;-40
2023/10/19 11:19:09;;;;;;;5.30;3.35;;;;;;;;;;5067838;28;20033;-42
2023/10/19 11:21:37;;;;;;;5.68;3.50;;;;;;;;;;5066215;28;20025;-41
2023/10/19 11:24:04;;;;;;;6.57;3.88;;;;;;;;;;5065923;28;20029;-38
2023/10/19 11:26:31;;;;;;;7.88;3.80;;;;;;;;;;5065432;28;20400;-41
2023/10/19 11:29:04;;;;;;;7.03;3.92;;;;;;;;;;5065960;28;20037;-43
2023/10/19 11:31:41;;;;;;;6.03;4.07;;;;;;;;;;5064862;28;20013;-45
2023/10/19 11:34:09;;;;;;;8.80;3.95;;;;;;;;;;5065582;28;20250;-42
2023/10/19 11:36:36;;;;;;;5.90;3.92;;;;;;;;;;5066065;28;20213;-45
2023/10/19 11:39:04;;;;;;;10.70;3.95;;;;;;;;;;5068226;28;20037;-44
2023/10/19 11:41:31;;;;;;;6.47;3.92;;;;;;;;;;5067920;28;20071;-43
2023/10/19 11:43:58;;;;;;;9.52;4.18;;;;;;;;;;5067729;28;20025;-44
2023/10/19 11:46:25;;;;;;;6.18;3.90;;;;;;;;;;5065086;28;20355;-45
2023/10/19 11:48:51;;;;;;;6.10;3.88;;;;;;;;;;5065526;28;20029;-50
2023/10/19 11:51:19;;;;;;;9.82;3.80;;;;;;;;;;5065093;28;20013;-44
2023/10/19 11:53:45;;;;;;;8.20;3.83;;;;;;;;;;5065359;28;20033;-44
2023/10/19 11:56:13;;;;;;;7.60;3.47;;;;;;;;;;5065068;28;20317;-50
2023/10/19 11:58:44;;;;;;;6.68;3.42;;;;;;;;;;5065352;28;20033;-44
2023/10/19 12:01:16;;;;;;;13.30;4.03;;;;;;;;;;5067234;28;20028;-39
2023/10/19 12:03:45;;;;;;;;;;;;;;;;;;5067865;28;20213;-40
2023/10/19 12:06:13;;;;;;;6.07;3.50;;;;;;;;;;5066224;28;20143;-39
2023/10/19 12:08:40;;;;;;;7.78;3.90;;;;;;;;;;5067849;28;20194;-42
2023/10/19 12:11:19;;;;;;;9.30;3.33;;;;;;;;;;5067232;28;20013;-38
2023/10/19 12:13:46;;;;;;;5.78;3.17;;;;;;;;;;5067614;28;20044;-45
2023/10/19 12:16:15;;;;;;;8.40;3.30;;;;;;;;;;5067324;28;20021;-40
2023/10/19 12:18:46;;;;;;;10.32;3.03;;;;;;;;;;5067608;28;20072;-39
2023/10/19 12:21:13;;;;;;;5.68;3.00;;;;;;;;;;5067287;28;20021;-40
2023/10/19 12:23:40;;;;;;;5.30;2.97;;;;;;;;;;5066953;28;20032;-40
2023/10/19 12:26:16;;;;;;;8.10;3.15;;;;;;;;;;5067303;28;20407;-39
2023/10/19 12:28:46;;;;;;;6.45;2.90;;;;;;;;;;5066582;28;20037;-39
2023/10/19 12:31:13;;;;;;;4.38;2.72;;;;;;;;;;5066308;28;20033;-39
2023/10/19 12:33:41;;;;;;;5.38;2.72;;;;;;;;;;5067246;28;20104;-39
2023/10/19 12:38:54;;;;;;;7.47;2.97;;;;;;;;;;5067116;28;20033;-45
2023/10/19 12:41:21;;;;;;;5.20;2.53;;;;;;;;;;5066667;28;20040;-41
2023/10/19 12:44:07;;;;;;;6.72;2.65;;;;;;;;;;5066995;28;20044;-47
2023/10/19 12:46:36;;;;;;;3.45;2.53;;;;;;;;;;5066313;28;20028;-39
2023/10/19 12:49:08;;;;;;;7.13;2.70;;;;;;;;;;5066175;28;20331;-40
2023/10/19 12:51:38;;;;;;;4.68;2.67;;;;;;;;;;5066312;28;20013;-39
2023/10/19 12:54:05;;;;;;;4.80;2.50;;;;;;;;;;5066804;28;20028;-39
2023/10/19 12:56:33;;;;;;;4.47;2.80;;;;;;;;;;5066138;28;20018;-42
2023/10/19 12:58:59;;;;;;;4.10;2.50;;;;;;;;;;5066875;28;20029;-39
2023/10/19 13:01:28;;;;;;;7.72;2.70;;;;;;;;;;5065755;28;20024;-41
2023/10/19 13:03:54;;;;;;;7.15;2.63;;;;;;;;;;5066319;28;20327;-41
2023/10/19 13:06:23;;;;;;;6.47;2.65;;;;;;;;;;5065903;28;20025;-41
2023/10/19 13:08:50;;;;;;;11.32;2.88;;;;;;;;;;5066301;28;20307;-46
2023/10/19 13:11:18;;;;;;;26.88;4.97;;;;;;;;;;5065660;28;20016;-39
2023/10/19 13:13:45;;;;;;;33.38;5.43;;;;;;;;;;5066538;28;20020;-42
2023/10/19 13:16:13;;;;;;;29.23;5.63;;;;;;;;;;5065447;28;20025;-40
2023/10/19 13:18:40;;;;;;;29.63;5.38;;;;;;;;;;5066049;28;20047;-40
2023/10/19 13:21:09;;;;;;;26.02;5.50;;;;;;;;;;5065792;28;20017;-39
2023/10/19 13:23:36;;;;;;;30.27;4.78;;;;;;;;;;5065969;28;20033;-41
2023/10/19 13:26:35;;;;;;;26.25;4.55;;;;;;;;;;5065066;28;20059;-41
2023/10/19 13:28:56;;;;;;;17.20;3.88;;;;;;;;;;5063207;28;20120;-40
2023/10/19 13:31:23;;;;;;;13.70;3.60;;;;;;;;;;5065000;28;20366;-41
2023/10/19 13:33:50;;;;;;;10.57;3.47;;;;;;;;;;5065626;28;20060;-42
2023/10/19 13:36:16;;;;;;;12.88;3.33;;;;;;;;;;5065682;28;20124;-40
2023/10/19 13:38:43;;;;;;;11.88;3.30;;;;;;;;;;5065385;28;20375;-49
2023/10/19 13:41:10;;;;;;;9.82;2.40;;;;;;;;;;5064832;28;20074;-41
2023/10/19 13:43:37;;;;;;;6.75;2.88;;;;;;;;;;5065193;28;20025;-44
2023/10/19 13:46:04;;;;;;;8.45;2.55;;;;;;;;;;5064799;28;20032;-42
2023/10/19 13:48:32;;;;;;;6.22;2.75;;;;;;;;;;5065178;28;20059;-43
2023/10/19 13:51:15;;;;;;;10.85;2.65;;;;;;;;;;5065475;28;20048;-41
2023/10/19 13:53:44;;;;;;;7.28;2.70;;;;;;;;;;5065334;28;20063;-43
2023/10/19 13:56:11;;;;;;;7.57;3.00;;;;;;;;;;5064778;28;20020;-43
2023/10/19 13:58:38;;;;;;;3.63;2.10;;;;;;;;;;5064784;28;20040;-42
2023/10/19 14:01:09;;;;;;;6.32;2.42;;;;;;;;;;5065002;28;20205;-41
2023/10/19 14:03:37;;;;;;;5.25;2.10;;;;;;;;;;5064928;28;20033;-47
2023/10/19 14:06:06;;;;;;;3.83;2.15;;;;;;;;;;5064486;28;20037;-43
2023/10/19 14:08:33;;;;;;;3.50;2.22;;;;;;;;;;5064158;28;20029;-39
2023/10/19 14:11:03;;;;;;;5.63;2.33;;;;;;;;;;5064421;28;20021;-40
2023/10/19 14:13:32;;;;;;;3.80;2.38;;;;;;;;;;5064579;28;20393;-41
2023/10/19 14:15:58;;;;;;;4.90;2.40;;;;;;;;;;5064313;28;20047;-42
2023/10/19 14:18:27;;;;;;;2.50;1.92;;;;;;;;;;5064539;28;20025;-41
2023/10/19 14:20:54;;;;;;;4.97;2.28;;;;;;;;;;5064518;28;20029;-42
2023/10/19 14:23:20;;;;;;;4.63;2.28;;;;;;;;;;5064556;28;20283;-40
2023/10/19 14:25:49;;;;;;;6.57;2.60;;;;;;;;;;5063974;28;20070;-44
2023/10/19 14:28:18;;;;;;;3.22;2.30;;;;;;;;;;5063319;28;20043;-39
2023/10/19 14:30:45;;;;;;;3.35;2.20;;;;;;;;;;5064169;28;20055;-46
2023/10/19 14:33:12;;;;;;;3.08;2.20;;;;;;;;;;5064276;28;20307;-41
2023/10/19 14:35:44;;;;;;;2.72;2.05;;;;;;;;;;5064108;28;20289;-43
2023/10/19 14:38:13;;;;;;;4.65;2.28;;;;;;;;;;5064462;28;20036;-41
2023/10/19 14:40:44;;;;;;;4.03;2.42;;;;;;;;;;5063961;28;20037;-43
2023/10/19 14:43:12;;;;;;;3.17;2.00;;;;;;;;;;5064139;28;20044;-42
2023/10/19 14:45:41;;;;;;;6.00;2.13;;;;;;;;;;5064217;28;20024;-39
2023/10/19 14:48:11;;;;;;;3.08;2.00;;;;;;;;;;5064381;28;20039;-40
2023/10/19 14:50:38;;;;;;;6.10;2.47;;;;;;;;;;5064226;28;20033;-38
2023/10/19 14:53:05;;;;;;;2.85;2.13;;;;;;;;;;5064090;28;20062;-40
2023/10/19 14:55:34;;;;;;;3.60;2.08;;;;;;;;;;5064249;28;20087;-40
2023/10/19 14:58:01;;;;;;;2.35;2.15;;;;;;;;;;5064679;28;20271;-43
2023/10/19 15:00:35;;;;;;;2.60;2.33;;;;;;;;;;5064653;28;20028;-39
2023/10/19 15:03:07;;;;;;;2.35;2.15;;;;;;;;;;5064729;28;20146;-40
2023/10/19 15:05:37;;;;;;;4.93;2.10;;;;;;;;;;5064029;28;20092;-44
2023/10/19 15:08:07;;;;;;;3.20;2.17;;;;;;;;;;5062398;28;20029;-44
2023/10/19 15:10:34;;;;;;;2.67;1.92;;;;;;;;;;5063517;28;20209;-39